首页
METAR-TAF:

METAR-TAF

机场 :

特倫頓空軍基地

特伦顿, 安大略省, 加拿大

纬度: 44-07N, 经度: 077-32W, 海拔: 85米

当前天气观测

该预报发布于28分钟前的09:00 UTC
风速7节,风向西转西南
温度 -9°C
湿度 67%
气压 1035 hPa
能見度: 24.1公里
天空无云

METAR: CYTR 120900Z 24007KT 15SM SKC M09/M14 A3055 RMK SLP353

时间: 04:28 (09:28 UTC)

预报

该预报发布于3小时和58分钟前的05:30 UTC
预报有效从12日的 06点(UTC)到 13日的 06点(UTC)
风速8节,风向西转西南
能見度: 10公里
少量云层高于2500英尺
从 12日的 1600点(UTC)
风速10节,风向西转西南
能見度: 10公里
散云层高于2500英尺
多云层高于10000英尺
从 12日的 2000点(UTC)
风速8节,风向南转西南
能見度: 10公里
多云层高于2500英尺
阴天层高于8000英尺
从 13日的 0200点(UTC)
风速10节,风向
能見度: 10公里
少量云层高于2500英尺
多云层高于18000英尺

TAF: CYTR 120530Z 1206/1306 24008KT P6SM FEW025 FM121600 25010KT P6SM SCT025 BKN100 FM122000 20008KT P6SM BKN025 OVC080 FM130200 18010KT P6SM FEW025 BKN180 RMK NXT FCST BY 121200Z

超过4000个机场的气象观测和天气预报(METAR&TAF报告)。

可查询的气象台以黄色和红色小点在地图上表示。

将鼠标移到小点上方,可查看气象台名称。

然后点击查看天气观测和预报。

如需切换地图:点击带黑十字的绿色按钮放大地图;点击带横线的绿色按钮缩小地图;或者点击绿色箭头查看邻近地区的地图。


METAR-TAF: